JLY7161 SBCT-SBGL
Flight info
| Callsign | JLY7161 |
|---|---|
| Flight time | N/A |
| Altitude | 35000 |
| Route | EDVEB UM548 KOXAG UM540 ANISE DCT DORLU UZ42 VUREP |
| Aircraft | B738/M-SDE2E3FGHIRWXY/LB1 |
Departure
| Time | N/A |
|---|---|
| Airport | Curitiba-Afonso Pena International Airport (SBCT) |
Arrival
| Time | 2026-05-06 23:08 |
|---|---|
| Airport | Rio Galeão – Tom Jobim International Airport (SBGL) |
| Time | Latitude | Longitude | Altitude | Speed | Heading |
|---|---|---|---|---|---|
| 2026-05-06 22:42 | -23.76671 | -45.74975 | 35159 ft | 523 kts | 45° |
| 2026-05-06 22:43 | -23.74035 | -45.72240 | 35160 ft | 523 kts | 45° |
| 2026-05-06 22:43 | -23.68757 | -45.66766 | 35166 ft | 524 kts | 45° |
| 2026-05-06 22:44 | -23.63467 | -45.61287 | 35176 ft | 524 kts | 45° |
| 2026-05-06 22:44 | -23.58183 | -45.55819 | 35166 ft | 524 kts | 46° |
| 2026-05-06 22:45 | -23.52882 | -45.50343 | 35178 ft | 524 kts | 46° |
| 2026-05-06 22:45 | -23.47586 | -45.44877 | 35184 ft | 524 kts | 46° |
| 2026-05-06 22:46 | -23.42317 | -45.39441 | 35181 ft | 525 kts | 46° |
| 2026-05-06 22:46 | -23.37198 | -45.33809 | 35180 ft | 520 kts | 57° |
| 2026-05-06 22:47 | -23.33737 | -45.27029 | 35191 ft | 507 kts | 75° |
| 2026-05-06 22:47 | -23.32756 | -45.23391 | 35130 ft | 495 kts | 83° |
| 2026-05-06 22:47 | -23.31999 | -45.19768 | 34691 ft | 489 kts | 84° |
| 2026-05-06 22:47 | -23.31273 | -45.16152 | 34063 ft | 490 kts | 84° |
| 2026-05-06 22:48 | -23.30540 | -45.12522 | 33265 ft | 493 kts | 83° |
| 2026-05-06 22:48 | -23.29786 | -45.08865 | 32458 ft | 496 kts | 82° |
| 2026-05-06 22:48 | -23.29011 | -45.05201 | 31684 ft | 498 kts | 82° |
| 2026-05-06 22:48 | -23.28229 | -45.01568 | 30939 ft | 499 kts | 81° |
| 2026-05-06 22:49 | -23.27466 | -44.98053 | 30251 ft | 500 kts | 80° |
| 2026-05-06 22:49 | -23.26662 | -44.94373 | 29445 ft | 499 kts | 80° |
| 2026-05-06 22:49 | -23.25862 | -44.90709 | 28592 ft | 498 kts | 80° |
| 2026-05-06 22:49 | -23.25063 | -44.87047 | 27695 ft | 498 kts | 79° |
| 2026-05-06 22:50 | -23.24265 | -44.83386 | 26840 ft | 497 kts | 79° |
| 2026-05-06 22:50 | -23.23472 | -44.79754 | 26258 ft | 490 kts | 79° |
| 2026-05-06 22:50 | -23.22688 | -44.76166 | 25701 ft | 482 kts | 79° |
| 2026-05-06 22:50 | -23.21921 | -44.72653 | 25125 ft | 476 kts | 79° |
| 2026-05-06 22:51 | -23.21161 | -44.69175 | 24526 ft | 470 kts | 78° |
| 2026-05-06 22:51 | -23.20418 | -44.65780 | 23942 ft | 465 kts | 78° |
| 2026-05-06 22:51 | -23.19672 | -44.62378 | 23317 ft | 460 kts | 78° |
| 2026-05-06 22:51 | -23.18956 | -44.59005 | 22660 ft | 454 kts | 79° |
| 2026-05-06 22:52 | -23.18267 | -44.55674 | 21993 ft | 450 kts | 79° |
| 2026-05-06 22:52 | -23.17588 | -44.52364 | 21066 ft | 450 kts | 79° |
| 2026-05-06 22:52 | -23.16903 | -44.49014 | 19825 ft | 459 kts | 79° |
| 2026-05-06 22:52 | -23.16193 | -44.45619 | 19132 ft | 455 kts | 78° |
| 2026-05-06 22:53 | -23.15494 | -44.42352 | 19013 ft | 435 kts | 79° |
| 2026-05-06 22:53 | -23.15106 | -44.39166 | 18910 ft | 415 kts | 85° |
| 2026-05-06 22:53 | -23.14489 | -44.36157 | 18735 ft | 404 kts | 71° |
| 2026-05-06 22:53 | -23.13242 | -44.33446 | 18390 ft | 400 kts | 59° |
| 2026-05-06 22:54 | -23.11692 | -44.30971 | 18159 ft | 396 kts | 56° |
| 2026-05-06 22:54 | -23.10047 | -44.28480 | 17927 ft | 415 kts | 56° |
| 2026-05-06 22:54 | -23.08356 | -44.25943 | 17756 ft | 424 kts | 55° |
| 2026-05-06 22:54 | -23.06618 | -44.23343 | 17499 ft | 424 kts | 55° |
| 2026-05-06 22:55 | -23.04892 | -44.20764 | 16921 ft | 420 kts | 55° |
| 2026-05-06 22:55 | -23.03191 | -44.18222 | 16380 ft | 414 kts | 55° |
| 2026-05-06 22:55 | -23.01516 | -44.15709 | 15770 ft | 405 kts | 55° |
| 2026-05-06 22:55 | -22.99893 | -44.13265 | 15180 ft | 391 kts | 55° |
| 2026-05-06 22:56 | -22.98335 | -44.10909 | 14613 ft | 379 kts | 55° |
| 2026-05-06 22:56 | -22.96819 | -44.08603 | 14059 ft | 372 kts | 55° |
| 2026-05-06 22:56 | -22.95330 | -44.06325 | 13399 ft | 367 kts | 55° |
| 2026-05-06 22:56 | -22.93879 | -44.04096 | 12896 ft | 357 kts | 55° |
| 2026-05-06 22:57 | -22.92456 | -44.01902 | 12428 ft | 356 kts | 55° |
| 2026-05-06 22:57 | -22.91066 | -43.99754 | 12282 ft | 366 kts | 55° |
| 2026-05-06 22:57 | -22.89581 | -43.97456 | 12184 ft | 377 kts | 55° |
| 2026-05-06 22:57 | -22.88077 | -43.95127 | 12159 ft | 383 kts | 55° |
| 2026-05-06 22:58 | -22.86546 | -43.92753 | 11935 ft | 385 kts | 55° |
| 2026-05-06 22:58 | -22.85109 | -43.90339 | 12011 ft | 380 kts | 62° |
| 2026-05-06 22:58 | -22.84133 | -43.87674 | 12095 ft | 382 kts | 74° |
| 2026-05-06 22:58 | -22.83519 | -43.84923 | 12038 ft | 366 kts | 78° |
| 2026-05-06 22:59 | -22.83036 | -43.82301 | 11897 ft | 345 kts | 79° |
| 2026-05-06 22:59 | -22.82599 | -43.79816 | 11759 ft | 325 kts | 79° |
| 2026-05-06 22:59 | -22.82177 | -43.77479 | 11632 ft | 306 kts | 78° |
| 2026-05-06 22:59 | -22.81770 | -43.75284 | 11524 ft | 289 kts | 78° |
| 2026-05-06 23:00 | -22.81373 | -43.73177 | 11168 ft | 284 kts | 78° |
| 2026-05-06 23:00 | -22.80966 | -43.71070 | 10586 ft | 287 kts | 76° |
| 2026-05-06 23:00 | -22.80481 | -43.68962 | 10052 ft | 288 kts | 75° |
| 2026-05-06 23:00 | -22.79976 | -43.66853 | 9459 ft | 290 kts | 75° |
| 2026-05-06 23:01 | -22.79475 | -43.64740 | 8926 ft | 288 kts | 75° |
| 2026-05-06 23:01 | -22.78981 | -43.62642 | 8495 ft | 284 kts | 75° |
| 2026-05-06 23:01 | -22.78516 | -43.60654 | 8395 ft | 273 kts | 75° |
| 2026-05-06 23:01 | -22.78045 | -43.58641 | 7916 ft | 278 kts | 76° |
| 2026-05-06 23:02 | -22.77569 | -43.56608 | 7418 ft | 278 kts | 76° |
| 2026-05-06 23:02 | -22.77025 | -43.54601 | 6921 ft | 277 kts | 68° |
| 2026-05-06 23:02 | -22.76251 | -43.52691 | 6435 ft | 277 kts | 65° |
| 2026-05-06 23:02 | -22.75451 | -43.50802 | 5982 ft | 274 kts | 65° |
| 2026-05-06 23:03 | -22.74675 | -43.48933 | 5587 ft | 270 kts | 65° |
| 2026-05-06 23:03 | -22.73922 | -43.47092 | 5212 ft | 264 kts | 66° |
| 2026-05-06 23:03 | -22.73435 | -43.45875 | 4966 ft | 257 kts | 66° |
| 2026-05-06 23:03 | -22.72731 | -43.44104 | 4389 ft | 255 kts | 66° |
| 2026-05-06 23:04 | -22.72082 | -43.42330 | 3837 ft | 251 kts | 75° |
| 2026-05-06 23:04 | -22.72159 | -43.40473 | 3225 ft | 251 kts | 110° |
| 2026-05-06 23:04 | -22.72976 | -43.38849 | 2851 ft | 240 kts | 122° |
| 2026-05-06 23:04 | -22.73910 | -43.37425 | 2512 ft | 222 kts | 125° |
| 2026-05-06 23:05 | -22.74771 | -43.36148 | 2246 ft | 204 kts | 124° |
| 2026-05-06 23:05 | -22.75570 | -43.34942 | 1997 ft | 191 kts | 123° |
| 2026-05-06 23:05 | -22.76322 | -43.33805 | 1751 ft | 178 kts | 123° |
| 2026-05-06 23:05 | -22.77007 | -43.32771 | 1504 ft | 162 kts | 124° |
| 2026-05-06 23:06 | -22.77628 | -43.31831 | 1334 ft | 146 kts | 124° |
| 2026-05-06 23:06 | -22.78214 | -43.30945 | 1119 ft | 143 kts | 124° |
| 2026-05-06 23:06 | -22.78794 | -43.30069 | 944 ft | 143 kts | 125° |
| 2026-05-06 23:06 | -22.79376 | -43.29191 | 747 ft | 143 kts | 125° |
| 2026-05-06 23:07 | -22.79952 | -43.28322 | 565 ft | 141 kts | 126° |
| 2026-05-06 23:07 | -22.80522 | -43.27456 | 326 ft | 139 kts | 126° |
| 2026-05-06 23:07 | -22.81075 | -43.26617 | 169 ft | 135 kts | 126° |
| 2026-05-06 23:07 | -22.81620 | -43.25794 | 28 ft | 129 kts | 126° |
| 2026-05-06 23:08 | -22.82065 | -43.25128 | 25 ft | 89 kts | 125° |
| 2026-05-06 23:08 | -22.82303 | -43.24770 | 17 ft | 22 kts | 126° |
| 2026-05-06 23:08 | -22.82351 | -43.24622 | 19 ft | 21 kts | 102° |
| 2026-05-06 23:08 | -22.82365 | -43.24504 | 18 ft | 4 kts | 96° |
| 2026-05-06 23:09 | -22.82367 | -43.24470 | 18 ft | 6 kts | 84° |
| 2026-05-06 23:09 | -22.82332 | -43.24422 | 17 ft | 11 kts | 40° |
| 2026-05-06 23:09 | -22.82257 | -43.24361 | 20 ft | 13 kts | 35° |
| 2026-05-06 23:09 | -22.82178 | -43.24301 | 22 ft | 16 kts | 35° |
| 2026-05-06 23:10 | -22.82070 | -43.24302 | 20 ft | 18 kts | 334° |
| 2026-05-06 23:10 | -22.81977 | -43.24352 | 20 ft | 8 kts | 4° |
| 2026-05-06 23:10 | -22.81961 | -43.24349 | 23 ft | 0 kts | 7° |